Canada's Largest FIR

CZEG Edmonton

Screenshot by Thomas Smith

  Upcoming Events

Northern Lights Tuesdays  July 30, 2024 23:00z

  Online Controllers

No controllers online.

  Weather

CYYC - Calgary International Airport  
CYYC 251800Z 36021KT 6SM FU OVC033 15/07 A2982 RMK FU1SC7 SLP099 DENSITY ALT 4600FT

CYEG - Edmonton International Airport  
CYEG 251800Z 25011KT 2SM -SHRA BR FU FEW003 SCT008 BKN012 OVC022 13/13 A2975 RMK SF1SC3SC3SC2 SF TR CVCTV CLD EMBD SLP082 DENSITY ALT 2900FT

CYXY - Whitehorse / Erik Nielsen International Airport  
CYXY 251800Z 16006KT 6SM -RA FEW012 SCT020 BKN034 OVC090 13/12 A3005 RMK SF1SC2SC3AC2 SLP189 DENSITY ALT 2600FT

CYZF - Yellowknife International Airport  
CYZF 251800Z 04004KT 360V070 15SM BKN011 OVC018 17/14 A2989 RMK SC6SC2 SLP131 DENSITY ALT 1200FT

CYMM - Fort McMurray Airport  
CYMM 251800Z AUTO 32007KT 4SM BR OVC004 15/14 A2965 RMK LTNG DIST W NW SLP049 DENSITY ALT 1800FT

CYQF - Red Deer Regional Airport  
CYQF 251800Z AUTO 30015G25KT 9SM OVC044 13/09 A2982 RMK LTNG DIST SW SLP104 DENSITY ALT 3500FT

CZVL - Edmonton / Villeneuve Airport  
CZVL 251813Z AUTO 22008KT 1SM R26/5000FT/N -RA BR OVC005 13/13 A2973 RMK LTNG DIST N NE PCPN 0.5MM PAST HR SLP075 DENSITY ALT 2800FT

CYBW - Calgary / Springbank Airport  
CYBW 251800Z AUTO 36013G21KT 9SM OVC028 14/07 A2984 RMK SLP102 DENSITY ALT 4900FT

CYOD - CFB Cold Lake  
CYOD 251800Z 15003KT 1 1/2SM FU OVC015 21/18 A2963 RMK FU2SC6 DENSITY ALT 3579FT SLP031

  View Our Airspace